Time;durP1;ratioP1;P1;durP2;ratioP2;P2;SDS_P1;SDS_P2;PMS_P1;PMS_P2;Temp;Humidity;BMP_temperature;BMP_pressure;BME280_temperature;BME280_humidity;BME280_pressure;Samples;Min_cycle;Max_cycle;Signal;HPM_P1;HPM_P2
2022/01/25 00:10:38;;;;;;;30.03;20.60;;;1.60;99.90;;;;;;5033322;28;20649;-85
2022/01/25 00:26:03;;;;;;;32.50;21.40;;;1.50;99.90;;;;;;5033236;28;20653;-85
2022/01/25 00:31:13;;;;;;;30.90;20.97;;;1.40;99.90;;;;;;5033060;28;20208;-86
2022/01/25 00:33:45;;;;;;;29.40;19.70;;;1.40;99.90;;;;;;5032616;28;20191;-86
2022/01/25 00:36:20;;;;;;;32.70;20.63;;;1.40;99.90;;;;;;5014901;28;20170;-83
2022/01/25 00:38:46;;;;;;;31.00;20.10;;;1.50;99.90;;;;;;5032691;28;20186;-83
2022/01/25 00:41:12;;;;;;;28.73;19.67;;;1.50;99.90;;;;;;5032917;28;20532;-83
2022/01/25 00:43:39;;;;;;;31.77;21.07;;;1.60;99.90;;;;;;5030081;28;20183;-83
2022/01/25 00:46:08;;;;;;;33.07;21.20;;;1.50;99.90;;;;;;5027731;28;20175;-85
2022/01/25 00:51:20;;;;;;;31.93;21.77;;;1.50;99.90;;;;;;5036455;28;20242;-84
2022/01/25 00:56:29;;;;;;;29.73;19.47;;;1.50;99.90;;;;;;5036296;28;20198;-85
2022/01/25 00:58:55;;;;;;;31.53;19.90;;;1.50;99.90;;;;;;5035796;28;20182;-83
2022/01/25 01:01:22;;;;;;;27.93;19.57;;;1.40;99.90;;;;;;5036042;28;20183;-83
2022/01/25 01:03:48;;;;;;;28.73;20.27;;;1.40;99.90;;;;;;5035877;28;20176;-82
2022/01/25 01:06:15;;;;;;;28.90;20.50;;;1.50;99.90;;;;;;5036465;28;20572;-84
2022/01/25 01:08:42;;;;;;;27.07;19.43;;;1.50;99.90;;;;;;5036350;28;20189;-85
2022/01/25 01:11:13;;;;;;;28.17;20.40;;;1.50;99.90;;;;;;5036376;28;20284;-83
2022/01/25 01:43:36;;;;;;;28.20;19.70;;;1.50;99.90;;;;;;4998932;28;20186;-85
2022/01/25 01:48:48;;;;;;;26.33;19.17;;;1.40;99.90;;;;;;5035523;28;20158;-85
2022/01/25 01:51:20;;;;;;;28.73;18.87;;;1.40;99.90;;;;;;5035745;28;20554;-85
2022/01/25 01:53:47;;;;;;;28.67;19.20;;;1.30;99.90;;;;;;5035441;28;20209;-85
2022/01/25 01:56:14;;;;;;;26.67;19.37;;;1.30;99.90;;;;;;5017691;28;20179;-86
2022/01/25 01:58:40;;;;;;;27.90;19.40;;;1.30;99.90;;;;;;5035365;28;20697;-84
2022/01/25 02:01:10;;;;;;;25.37;18.23;;;1.30;99.90;;;;;;5034877;28;20179;-83
2022/01/25 02:03:36;;;;;;;28.03;19.00;;;1.20;99.90;;;;;;5035158;28;20175;-84
2022/01/25 02:06:02;;;;;;;28.10;20.63;;;1.20;99.90;;;;;;5035219;28;20179;-86
2022/01/25 02:08:28;;;;;;;25.70;18.90;;;1.20;99.90;;;;;;5035415;28;20175;-86
2022/01/25 02:10:54;;;;;;;26.80;19.37;;;1.30;99.90;;;;;;5035126;28;20229;-86
2022/01/25 02:13:20;;;;;;;28.60;19.30;;;1.30;99.90;;;;;;5035076;28;20174;-85
2022/01/25 02:15:48;;;;;;;28.10;18.37;;;1.20;99.90;;;;;;5034978;28;20528;-86
2022/01/25 02:23:41;;;;;;;28.83;18.80;;;1.00;99.90;;;;;;5035487;28;20174;-85
2022/01/25 02:26:08;;;;;;;27.20;19.03;;;1.00;99.90;;;;;;5034846;28;20181;-85
2022/01/25 02:28:37;;;;;;;24.40;18.70;;;1.00;99.90;;;;;;5043909;28;20211;-86
2022/01/25 02:31:06;;;;;;;27.77;19.17;;;1.00;99.90;;;;;;5054437;28;20201;-85
2022/01/25 02:33:32;;;;;;;25.77;18.83;;;0.90;99.90;;;;;;5054519;28;20173;-84
2022/01/25 02:36:00;;;;;;;26.30;19.07;;;0.90;99.90;;;;;;5054493;28;20176;-86
2022/01/25 02:38:29;;;;;;;31.63;20.37;;;0.80;99.90;;;;;;5054379;28;20267;-85
2022/01/25 02:40:56;;;;;;;25.20;18.70;;;0.80;99.90;;;;;;5054557;28;20176;-85
2022/01/25 02:43:24;;;;;;;25.63;18.20;;;0.90;99.90;;;;;;5054424;28;20177;-85
2022/01/25 02:46:16;;;;;;;27.43;18.93;;;0.80;99.90;;;;;;5054399;28;20231;-85
2022/01/25 02:49:03;;;;;;;27.60;19.80;;;0.80;99.90;;;;;;5055058;28;20172;-85
2022/01/25 02:51:32;;;;;;;26.07;18.90;;;0.80;99.90;;;;;;5057851;28;20202;-85
2022/01/25 02:53:58;;;;;;;24.97;18.37;;;0.80;99.90;;;;;;5077832;28;20161;-85
2022/01/25 02:56:26;;;;;;;28.10;19.93;;;0.80;99.90;;;;;;5055989;28;20177;-85
2022/01/25 02:58:52;;;;;;;27.53;20.03;;;0.80;99.90;;;;;;5055615;28;20173;-84
2022/01/25 03:01:20;;;;;;;26.33;19.33;;;0.80;99.90;;;;;;5054808;28;20177;-85
2022/01/25 03:03:47;;;;;;;25.97;17.90;;;0.70;99.90;;;;;;5054863;28;20207;-85
2022/01/25 03:06:18;;;;;;;28.37;18.77;;;0.70;99.90;;;;;;5054909;28;20174;-86
2022/01/25 03:08:45;;;;;;;26.67;19.50;;;0.70;99.90;;;;;;5060084;28;20164;-86
2022/01/25 03:11:11;;;;;;;27.20;19.50;;;0.60;99.90;;;;;;5057000;28;20212;-85
2022/01/25 03:13:49;;;;;;;29.63;20.07;;;0.50;99.90;;;;;;5058671;28;20207;-84
2022/01/25 03:16:22;;;;;;;25.93;19.47;;;0.50;99.90;;;;;;5054341;28;20162;-85
2022/01/25 03:18:49;;;;;;;30.47;20.07;;;0.50;99.90;;;;;;5054295;28;20215;-86
2022/01/25 03:23:45;;;;;;;28.30;19.33;;;0.40;99.90;;;;;;5053859;28;20162;-85
2022/01/25 03:26:11;;;;;;;28.17;19.50;;;0.40;99.90;;;;;;5035774;28;20184;-84
2022/01/25 03:28:37;;;;;;;27.80;19.27;;;0.40;99.90;;;;;;5053549;28;20221;-84
2022/01/25 03:31:03;;;;;;;28.80;19.53;;;0.40;99.90;;;;;;5053660;28;20589;-84
2022/01/25 03:33:29;;;;;;;27.27;20.23;;;0.40;99.90;;;;;;5053613;28;20542;-84
2022/01/25 03:35:55;;;;;;;30.60;20.33;;;0.40;99.90;;;;;;5053529;28;20182;-85
2022/01/25 03:38:21;;;;;;;29.23;19.60;;;0.40;99.90;;;;;;5053493;28;20184;-86
2022/01/25 03:40:46;;;;;;;28.50;19.50;;;0.40;99.90;;;;;;5053638;28;20172;-84
2022/01/25 03:43:14;;;;;;;27.00;19.70;;;0.40;99.90;;;;;;5053498;28;20209;-83
2022/01/25 03:45:44;;;;;;;26.97;19.37;;;0.40;99.90;;;;;;5053551;28;20170;-84
2022/01/25 03:50:44;;;;;;;29.57;19.67;;;0.40;99.90;;;;;;5053568;28;20519;-82
2022/01/25 03:53:12;;;;;;;29.43;19.43;;;0.50;99.90;;;;;;5053611;28;20176;-82
2022/01/25 03:55:39;;;;;;;26.37;19.27;;;0.50;99.90;;;;;;5053712;28;20174;-83
2022/01/25 03:58:05;;;;;;;29.07;20.20;;;0.50;99.90;;;;;;5039115;28;20184;-82
2022/01/25 04:00:33;;;;;;;29.87;20.03;;;0.50;99.90;;;;;;5033235;28;20174;-84
2022/01/25 04:03:07;;;;;;;31.20;20.73;;;0.40;99.90;;;;;;5039892;28;20235;-84
2022/01/25 04:08:09;;;;;;;29.97;21.03;;;0.30;99.90;;;;;;5048123;28;20176;-85
2022/01/25 04:10:35;;;;;;;29.50;19.57;;;0.30;99.90;;;;;;5035320;28;20257;-84
2022/01/25 04:13:01;;;;;;;30.63;19.43;;;0.30;99.90;;;;;;5033659;28;20309;-85
2022/01/25 04:15:27;;;;;;;27.90;19.07;;;0.20;99.90;;;;;;5015632;28;20170;-86
2022/01/25 04:20:38;;;;;;;31.43;20.53;;;0.20;99.90;;;;;;5033528;28;20165;-86
2022/01/25 04:25:49;;;;;;;29.57;19.97;;;0.10;99.90;;;;;;5037440;28;20167;-86
2022/01/25 04:28:14;;;;;;;27.47;19.67;;;0.00;99.90;;;;;;5036942;28;20231;-85
2022/01/25 04:30:40;;;;;;;30.23;20.60;;;0.10;99.90;;;;;;5036858;28;20191;-85
2022/01/25 04:33:18;;;;;;;29.47;19.97;;;0.10;99.90;;;;;;5036864;28;20180;-85
2022/01/25 04:49:47;;;;;;;30.53;20.40;;;0.00;99.90;;;;;;5037877;28;20219;-85
2022/01/25 04:52:18;;;;;;;41.67;21.70;;;0.00;99.90;;;;;;5038195;28;20198;-85
2022/01/25 04:54:55;;;;;;;29.23;19.87;;;-0.10;99.90;;;;;;5042130;28;20164;-85
2022/01/25 04:57:35;;;;;;;31.70;21.80;;;-0.10;99.90;;;;;;5053319;28;20167;-85
2022/01/25 05:00:13;;;;;;;30.03;20.83;;;-0.10;99.90;;;;;;5038361;28;20269;-85
2022/01/25 05:05:18;;;;;;;30.90;21.50;;;-0.20;99.90;;;;;;5037046;28;20269;-85
2022/01/25 05:10:16;;;;;;;28.70;20.57;;;-0.10;99.90;;;;;;5036358;28;20164;-84
2022/01/25 05:18:04;;;;;;;36.73;22.67;;;-0.10;99.90;;;;;;5036098;28;20190;-85
2022/01/25 05:23:15;;;;;;;35.30;22.00;;;-0.20;99.90;;;;;;5036585;28;20173;-84
2022/01/25 05:25:41;;;;;;;34.03;22.23;;;-0.10;99.90;;;;;;5036251;28;20174;-83
2022/01/25 05:28:06;;;;;;;33.37;22.13;;;-0.10;99.90;;;;;;5035842;28;20216;-82
2022/01/25 05:30:32;;;;;;;33.27;21.03;;;0.00;99.90;;;;;;5036045;28;20575;-84
2022/01/25 05:32:58;;;;;;;34.73;22.20;;;0.00;99.90;;;;;;5035983;28;20217;-83
2022/01/25 05:35:24;;;;;;;35.77;22.67;;;0.00;99.90;;;;;;5034960;28;20172;-81
2022/01/25 05:37:50;;;;;;;39.60;25.23;;;0.00;99.90;;;;;;5035815;28;20264;-83
2022/01/25 05:40:27;;;;;;;33.27;22.73;;;0.00;99.90;;;;;;5035649;28;20166;-85
2022/01/25 05:46:00;;;;;;;37.67;22.57;;;0.00;99.90;;;;;;5035843;28;20581;-83
2022/01/25 05:48:27;;;;;;;37.23;22.33;;;0.00;99.90;;;;;;5035761;28;20168;-85
2022/01/25 05:50:54;;;;;;;36.20;22.30;;;-0.10;99.90;;;;;;5017601;28;20192;-83
2022/01/25 05:53:20;;;;;;;34.70;22.23;;;0.00;99.90;;;;;;5035452;28;20225;-84
2022/01/25 05:55:47;;;;;;;34.73;22.57;;;0.00;99.90;;;;;;5035523;28;20231;-84
2022/01/25 05:58:12;;;;;;;34.80;22.83;;;0.00;99.90;;;;;;5035406;28;20174;-85
2022/01/25 06:00:39;;;;;;;36.73;22.43;;;0.00;99.90;;;;;;5035305;28;20261;-85
2022/01/25 06:03:06;;;;;;;40.93;22.80;;;0.00;99.90;;;;;;5035646;28;20169;-85
2022/01/25 06:05:33;;;;;;;33.93;21.97;;;0.00;99.90;;;;;;5035634;28;20188;-85
2022/01/25 06:07:59;;;;;;;33.43;22.20;;;0.00;99.90;;;;;;5035310;28;20179;-84
2022/01/25 06:10:25;;;;;;;34.80;21.13;;;0.00;99.90;;;;;;5035548;28;20180;-85
2022/01/25 06:12:51;;;;;;;32.23;20.80;;;-0.10;99.90;;;;;;5035153;28;20672;-84
2022/01/25 06:15:17;;;;;;;35.77;23.57;;;-0.10;99.90;;;;;;5035203;28;20543;-84
2022/01/25 06:17:45;;;;;;;35.63;22.43;;;0.00;99.90;;;;;;5035060;28;20264;-85
2022/01/25 06:20:11;;;;;;;40.47;24.30;;;0.00;99.90;;;;;;5034782;28;20584;-83
2022/01/25 06:22:37;;;;;;;38.37;22.67;;;0.00;99.90;;;;;;5035333;28;20177;-85
2022/01/25 06:25:05;;;;;;;34.57;22.63;;;0.00;99.90;;;;;;5035097;28;20225;-86
2022/01/25 06:27:30;;;;;;;36.50;23.43;;;0.00;99.90;;;;;;5034788;28;20664;-91
2022/01/25 06:29:57;;;;;;;41.17;22.87;;;0.00;99.90;;;;;;5035825;28;20184;-85
2022/01/25 06:32:23;;;;;;;33.40;21.97;;;0.00;99.90;;;;;;5015804;28;20209;-84
2022/01/25 06:34:49;;;;;;;37.83;21.53;;;0.00;99.90;;;;;;5013992;28;20171;-84
2022/01/25 06:37:15;;;;;;;42.93;22.57;;;0.00;99.90;;;;;;5014243;28;20175;-84
2022/01/25 06:39:41;;;;;;;51.17;21.33;;;0.00;99.90;;;;;;5015371;28;20654;-83
2022/01/25 06:42:08;;;;;;;34.90;21.60;;;0.00;99.90;;;;;;5021454;28;20173;-82
2022/01/25 06:44:36;;;;;;;30.97;20.93;;;-0.10;99.90;;;;;;5029809;28;20173;-83
2022/01/25 06:47:02;;;;;;;37.67;22.03;;;-0.10;99.90;;;;;;5019071;28;20180;-83
2022/01/25 06:49:28;;;;;;;31.87;20.67;;;-0.10;99.90;;;;;;5014648;28;20202;-84
2022/01/25 06:51:54;;;;;;;33.70;21.00;;;-0.10;99.90;;;;;;5018628;28;20619;-92
2022/01/25 06:54:20;;;;;;;32.67;21.47;;;-0.10;99.90;;;;;;4997720;28;20260;-84
2022/01/25 06:56:46;;;;;;;34.10;21.30;;;-0.10;99.90;;;;;;5013951;28;20170;-83
2022/01/25 06:59:11;;;;;;;31.87;20.97;;;-0.10;99.90;;;;;;5015185;28;20646;-84
2022/01/25 07:01:37;;;;;;;35.23;22.13;;;0.00;99.90;;;;;;4996664;28;20216;-83
2022/01/25 07:04:03;;;;;;;41.03;22.13;;;0.10;99.90;;;;;;5014067;28;20533;-86
2022/01/25 07:06:29;;;;;;;35.93;22.70;;;0.10;99.90;;;;;;5013657;28;20194;-83
2022/01/25 07:08:55;;;;;;;37.50;20.87;;;0.10;99.90;;;;;;5014266;28;20173;-85
2022/01/25 07:11:21;;;;;;;47.20;22.47;;;0.10;99.90;;;;;;5015771;28;20649;-83
2022/01/25 07:13:47;;;;;;;45.67;22.23;;;0.10;99.90;;;;;;5020458;28;20540;-83
2022/01/25 07:16:13;;;;;;;33.67;21.73;;;0.10;99.90;;;;;;5015993;28;20180;-83
2022/01/25 07:18:39;;;;;;;35.67;21.40;;;0.10;99.90;;;;;;5014481;28;20176;-84
2022/01/25 07:21:05;;;;;;;33.20;21.23;;;0.20;99.90;;;;;;5014131;28;20178;-83
2022/01/25 07:23:31;;;;;;;33.33;21.07;;;0.30;99.90;;;;;;5027552;28;20177;-83
2022/01/25 07:25:57;;;;;;;31.60;20.30;;;0.30;99.90;;;;;;5034085;28;20185;-83
2022/01/25 07:28:24;;;;;;;36.43;22.00;;;0.60;99.90;;;;;;4980765;28;1499255;-83
2022/01/25 07:30:50;;;;;;;35.30;22.20;;;0.70;99.90;;;;;;5018615;28;20178;-84
2022/01/25 07:33:16;;;;;;;35.87;22.47;;;0.70;99.90;;;;;;5022446;28;20181;-84
2022/01/25 07:35:42;;;;;;;35.70;22.33;;;0.70;99.90;;;;;;5024357;28;20197;-84
2022/01/25 07:38:08;;;;;;;34.87;21.70;;;0.70;99.90;;;;;;5005609;28;20532;-84
2022/01/25 07:40:36;;;;;;;35.43;20.90;;;0.70;99.90;;;;;;5006152;28;20184;-84
2022/01/25 07:43:03;;;;;;;35.17;23.07;;;0.60;99.90;;;;;;5024108;28;20172;-83
2022/01/25 07:45:34;;;;;;;33.27;22.07;;;0.80;99.90;;;;;;5024985;28;20179;-83
2022/01/25 07:48:05;;;;;;;31.33;20.87;;;0.80;99.90;;;;;;5026635;28;20159;-82
2022/01/25 07:50:31;;;;;;;31.33;21.20;;;0.80;99.90;;;;;;5028274;28;20159;-83
2022/01/25 07:52:56;;;;;;;30.77;20.87;;;0.90;99.90;;;;;;5028696;28;20261;-83
2022/01/25 07:55:22;;;;;;;32.57;21.07;;;1.00;99.90;;;;;;5023109;28;20187;-83
2022/01/25 07:57:48;;;;;;;35.33;21.20;;;1.00;99.90;;;;;;5023217;28;20178;-84
2022/01/25 08:00:14;;;;;;;38.07;22.33;;;1.00;99.90;;;;;;5029139;28;20260;-83
2022/01/25 08:02:41;;;;;;;30.20;20.50;;;1.00;99.90;;;;;;5029077;28;20184;-83
2022/01/25 08:05:08;;;;;;;37.73;21.90;;;1.00;99.90;;;;;;5029094;28;20257;-84
2022/01/25 08:07:34;;;;;;;34.77;21.40;;;1.00;99.90;;;;;;5029301;28;20200;-84
2022/01/25 08:09:59;;;;;;;33.83;22.03;;;0.90;99.90;;;;;;5011934;28;20634;-84
2022/01/25 08:12:25;;;;;;;33.30;21.67;;;0.90;99.90;;;;;;5030129;28;20209;-85
2022/01/25 08:14:53;;;;;;;31.77;21.27;;;0.90;99.90;;;;;;5028433;28;20257;-83
2022/01/25 08:17:19;;;;;;;35.27;22.13;;;0.90;99.90;;;;;;5003601;28;20277;-83
2022/01/25 08:19:44;;;;;;;38.53;22.10;;;1.00;99.90;;;;;;5020091;28;20789;-84
2022/01/25 08:22:11;;;;;;;33.67;21.47;;;1.10;99.90;;;;;;5021904;28;20181;-83
2022/01/25 08:24:37;;;;;;;31.03;20.63;;;1.10;99.90;;;;;;5020678;28;20271;-85
2022/01/25 08:27:03;;;;;;;30.43;20.87;;;1.20;99.90;;;;;;5025285;28;20177;-85
2022/01/25 08:29:29;;;;;;;33.67;21.93;;;1.30;99.90;;;;;;5021888;28;20231;-84
2022/01/25 08:31:55;;;;;;;36.93;22.50;;;1.30;99.90;;;;;;5026333;28;20237;-84
2022/01/25 08:34:21;;;;;;;39.67;22.77;;;1.30;99.90;;;;;;5036172;28;20167;-85
2022/01/25 08:36:47;;;;;;;38.73;22.20;;;1.20;99.90;;;;;;5028545;28;20215;-85
2022/01/25 08:39:13;;;;;;;39.77;21.90;;;1.10;99.90;;;;;;5020711;28;20257;-85
2022/01/25 08:41:39;;;;;;;38.13;22.37;;;1.00;99.90;;;;;;5020328;28;20206;-84
2022/01/25 08:44:05;;;;;;;41.03;22.63;;;1.00;99.90;;;;;;5020127;28;20576;-85
2022/01/25 08:46:32;;;;;;;47.83;23.80;;;1.00;99.90;;;;;;5026376;28;20160;-85
2022/01/25 08:48:58;;;;;;;39.47;22.97;;;1.00;99.90;;;;;;5020270;28;20623;-85
2022/01/25 08:51:24;;;;;;;34.17;22.23;;;1.00;99.90;;;;;;5019971;28;20195;-85
2022/01/25 08:53:50;;;;;;;40.37;22.47;;;1.10;99.90;;;;;;5020596;28;20201;-85
2022/01/25 08:56:15;;;;;;;40.53;22.33;;;1.10;99.90;;;;;;5020693;28;20244;-84
2022/01/25 08:58:42;;;;;;;34.90;21.80;;;1.10;99.90;;;;;;5020045;28;20258;-84
2022/01/25 09:01:07;;;;;;;35.87;22.53;;;1.20;99.90;;;;;;5020209;28;20666;-84
2022/01/25 09:03:33;;;;;;;34.70;22.77;;;1.20;99.90;;;;;;5020110;28;20173;-83
2022/01/25 09:05:59;;;;;;;39.60;23.37;;;1.20;99.90;;;;;;5020149;28;20190;-83
2022/01/25 09:08:28;;;;;;;33.47;21.27;;;1.40;99.90;;;;;;5020249;28;20532;-84
2022/01/25 09:10:58;;;;;;;33.27;20.77;;;1.40;99.90;;;;;;5015994;28;20175;-85
2022/01/25 09:13:24;;;;;;;34.97;21.97;;;1.40;99.90;;;;;;4999483;28;20171;-85
2022/01/25 09:15:51;;;;;;;34.30;20.97;;;1.30;99.90;;;;;;5017360;28;20289;-84
2022/01/25 09:18:17;;;;;;;37.53;22.97;;;1.40;99.90;;;;;;5017081;28;20678;-84
2022/01/25 09:20:44;;;;;;;33.77;21.10;;;1.50;99.90;;;;;;5016742;28;20230;-85
2022/01/25 09:23:10;;;;;;;34.13;22.03;;;1.40;99.90;;;;;;5016725;28;20174;-85
2022/01/25 09:25:38;;;;;;;31.70;21.83;;;1.40;99.90;;;;;;5017301;28;20171;-85
2022/01/25 09:28:07;;;;;;;33.77;20.87;;;1.50;99.90;;;;;;5016697;28;20219;-85
2022/01/25 09:30:33;;;;;;;31.90;20.53;;;1.50;99.90;;;;;;4999125;28;20184;-84
2022/01/25 09:32:59;;;;;;;32.37;20.37;;;1.40;99.90;;;;;;5016265;28;20253;-85
2022/01/25 09:35:25;;;;;;;34.03;21.37;;;1.30;99.90;;;;;;5016583;28;20615;-85
2022/01/25 09:37:51;;;;;;;30.10;20.97;;;1.20;99.90;;;;;;5000304;28;20515;-85
2022/01/25 09:40:20;;;;;;;34.73;20.07;;;1.20;99.90;;;;;;4998889;28;20266;-84
2022/01/25 09:42:50;;;;;;;32.50;21.33;;;1.20;99.90;;;;;;5017428;28;20183;-85
2022/01/25 09:45:17;;;;;;;32.97;20.97;;;1.20;99.90;;;;;;5017621;28;20633;-85
2022/01/25 09:47:44;;;;;;;33.30;21.33;;;1.10;99.90;;;;;;4999574;28;20652;-85
2022/01/25 09:50:10;;;;;;;31.10;20.83;;;1.10;99.90;;;;;;5016723;28;20253;-85
2022/01/25 09:52:35;;;;;;;30.90;20.57;;;1.00;99.90;;;;;;5002986;28;20264;-85
2022/01/25 09:55:02;;;;;;;27.17;19.67;;;1.00;99.90;;;;;;5017950;28;20208;-85
2022/01/25 09:57:28;;;;;;;27.63;19.13;;;0.90;99.90;;;;;;5016517;28;20181;-85
2022/01/25 09:59:56;;;;;;;30.13;18.80;;;0.80;99.90;;;;;;5016181;28;20166;-85
2022/01/25 10:02:50;;;;;;;29.47;19.17;;;0.80;99.90;;;;;;5016505;28;20175;-85
2022/01/25 10:05:33;;;;;;;31.20;19.87;;;0.80;99.90;;;;;;5015973;28;20169;-85
2022/01/25 10:08:09;;;;;;;27.20;18.43;;;0.80;99.90;;;;;;5016809;28;20173;-85
2022/01/25 10:10:38;;;;;;;65.13;20.70;;;0.80;99.90;;;;;;5015604;28;20176;-85
2022/01/25 10:13:11;;;;;;;28.80;19.17;;;0.90;99.90;;;;;;5016129;28;20201;-86
2022/01/25 10:15:38;;;;;;;28.10;19.13;;;1.00;99.90;;;;;;5016545;28;20256;-85
2022/01/25 10:18:04;;;;;;;28.90;20.20;;;1.00;99.90;;;;;;5020171;28;20182;-85
2022/01/25 10:20:40;;;;;;;33.90;21.80;;;1.00;99.90;;;;;;5020865;28;20166;-85
2022/01/25 10:23:11;;;;;;;32.17;20.43;;;1.00;99.90;;;;;;5028774;28;20174;-84
2022/01/25 10:25:39;;;;;;;33.83;22.03;;;1.00;99.90;;;;;;5027059;28;20570;-85
2022/01/25 10:28:13;;;;;;;41.40;22.20;;;1.10;99.90;;;;;;5016524;28;20235;-85
2022/01/25 10:30:47;;;;;;;35.60;22.47;;;1.10;99.90;;;;;;5016715;28;20207;-85
2022/01/25 10:33:43;;;;;;;33.90;21.03;;;1.20;99.90;;;;;;5015731;28;20649;-84
2022/01/25 10:36:19;;;;;;;31.13;20.50;;;1.30;99.90;;;;;;5014866;28;20188;-84
2022/01/25 10:38:48;;;;;;;31.50;21.27;;;1.30;99.90;;;;;;5015767;28;20168;-84
2022/01/25 10:41:19;;;;;;;34.50;20.40;;;1.40;99.90;;;;;;5015259;28;20233;-84
2022/01/25 10:43:47;;;;;;;29.67;20.23;;;1.50;99.90;;;;;;5015390;28;20174;-83
2022/01/25 10:46:29;;;;;;;30.17;20.93;;;1.60;99.90;;;;;;5015627;28;20536;-84
2022/01/25 10:48:57;;;;;;;27.70;19.90;;;1.60;99.90;;;;;;4998035;28;20546;-84
2022/01/25 10:51:35;;;;;;;25.67;19.13;;;1.70;99.90;;;;;;5014729;28;20552;-84
2022/01/25 10:54:24;;;;;;;26.63;19.23;;;1.70;99.90;;;;;;5015520;28;20190;-85
2022/01/25 10:56:56;;;;;;;31.93;19.93;;;1.80;99.90;;;;;;5015090;28;20192;-85
2022/01/25 10:59:26;;;;;;;25.83;18.43;;;1.70;99.90;;;;;;5015450;28;20256;-85
2022/01/25 11:02:05;;;;;;;28.67;19.23;;;1.80;99.90;;;;;;5002815;28;20179;-85
2022/01/25 11:04:34;;;;;;;30.07;19.00;;;1.90;99.90;;;;;;5022017;28;20164;-85
2022/01/25 11:07:06;;;;;;;25.10;18.17;;;1.90;99.90;;;;;;5017677;28;20179;-85
2022/01/25 11:09:37;;;;;;;27.30;18.97;;;2.00;99.90;;;;;;5017969;28;20172;-86
2022/01/25 11:12:07;;;;;;;23.37;17.83;;;2.10;99.90;;;;;;5015522;28;20250;-85
2022/01/25 11:14:53;;;;;;;26.97;18.90;;;2.20;99.90;;;;;;5014833;28;20198;-86
2022/01/25 11:17:27;;;;;;;23.97;18.30;;;2.20;99.90;;;;;;5015322;28;20619;-85
2022/01/25 11:19:55;;;;;;;26.20;18.30;;;2.20;99.90;;;;;;5015557;28;20254;-85
2022/01/25 11:22:21;;;;;;;30.17;18.70;;;2.30;99.90;;;;;;5014224;28;20532;-85
2022/01/25 11:24:59;;;;;;;27.73;19.10;;;2.40;99.90;;;;;;5014239;28;20174;-86
2022/01/25 11:27:31;;;;;;;24.47;18.00;;;2.40;99.90;;;;;;5019720;28;20202;-86
2022/01/25 11:30:04;;;;;;;27.33;17.80;;;2.40;99.90;;;;;;4998440;28;20224;-86
2022/01/25 11:32:39;;;;;;;29.77;19.60;;;2.40;99.90;;;;;;5013372;28;20208;-85
2022/01/25 11:35:09;;;;;;;24.93;18.27;;;2.40;99.90;;;;;;5014038;28;20187;-86
2022/01/25 11:37:38;;;;;;;23.00;17.90;;;2.50;99.90;;;;;;5015602;28;20184;-85
2022/01/25 11:40:37;;;;;;;23.87;16.73;;;2.70;99.90;;;;;;5014408;28;20575;-85
2022/01/25 11:43:10;;;;;;;22.27;16.13;;;2.70;99.90;;;;;;5015432;28;20181;-85
2022/01/25 11:45:41;;;;;;;22.20;17.13;;;2.70;99.90;;;;;;5015183;28;20212;-85
2022/01/25 11:48:07;;;;;;;23.33;16.97;;;2.80;99.90;;;;;;5014090;28;20168;-85
2022/01/25 11:50:34;;;;;;;22.40;16.43;;;2.90;99.90;;;;;;5014208;28;20173;-85
2022/01/25 11:53:08;;;;;;;24.13;15.87;;;2.80;99.90;;;;;;4996416;28;20223;-85
2022/01/25 11:55:41;;;;;;;21.40;15.93;;;2.90;99.90;;;;;;5014291;28;20248;-85
2022/01/25 11:58:13;;;;;;;18.47;15.00;;;3.00;99.90;;;;;;5014010;28;20655;-85
2022/01/25 12:00:46;;;;;;;23.10;16.50;;;2.90;99.90;;;;;;5014042;28;20180;-85
2022/01/25 12:03:46;;;;;;;19.47;15.63;;;2.90;99.90;;;;;;5015718;28;20181;-86
2022/01/25 12:06:33;;;;;;;20.43;15.77;;;3.00;99.90;;;;;;4938810;29;20225;-85
2022/01/25 12:10:12;;;;;;;20.03;15.17;;;3.00;99.90;;;;;;4962246;29;20206;-84
2022/01/25 12:12:09;;;;;;;19.57;14.97;;;3.00;99.90;;;;;;4954633;29;20224;-85
2022/01/25 12:14:50;;;;;;;19.40;15.40;;;3.00;99.90;;;;;;4973859;29;20248;-84
2022/01/25 12:17:24;;;;;;;21.60;15.03;;;3.10;99.90;;;;;;4955307;29;20635;-84
2022/01/25 12:19:58;;;;;;;23.57;16.30;;;3.20;99.90;;;;;;4953805;29;20170;-85
2022/01/25 12:25:19;;;;;;;20.47;15.63;;;3.30;99.90;;;;;;4953900;29;20660;-85
2022/01/25 12:27:53;;;;;;;22.23;16.37;;;3.30;99.90;;;;;;4954637;29;20231;-83
2022/01/25 12:30:43;;;;;;;22.17;16.13;;;3.30;99.90;;;;;;4934737;29;20535;-83
2022/01/25 12:33:18;;;;;;;20.30;14.90;;;3.40;99.90;;;;;;4935012;29;20210;-85
2022/01/25 12:35:52;;;;;;;19.63;16.10;;;3.40;99.90;;;;;;4942436;29;20199;-85
2022/01/25 12:38:27;;;;;;;19.17;15.50;;;3.40;99.90;;;;;;4934850;29;20185;-85
2022/01/25 12:40:53;;;;;;;18.97;14.73;;;3.40;99.90;;;;;;4943523;28;20273;-86
2022/01/25 12:43:20;;;;;;;19.10;14.77;;;3.40;99.90;;;;;;4994383;28;20205;-85
2022/01/25 12:45:51;;;;;;;19.77;15.27;;;3.40;99.90;;;;;;4997186;28;20180;-86
2022/01/25 12:48:20;;;;;;;17.63;14.03;;;3.50;99.90;;;;;;4979946;28;20618;-86
2022/01/25 12:50:50;;;;;;;20.73;14.77;;;3.50;99.90;;;;;;4997435;28;20232;-85
2022/01/25 12:53:20;;;;;;;22.67;15.70;;;3.50;99.90;;;;;;4997516;28;20298;-86
2022/01/25 12:55:50;;;;;;;22.23;15.50;;;3.60;99.90;;;;;;4997533;28;20173;-86
2022/01/25 12:58:18;;;;;;;21.13;15.43;;;3.50;99.90;;;;;;4997464;28;20196;-85
2022/01/25 13:00:47;;;;;;;23.33;14.90;;;3.60;99.90;;;;;;4997960;28;20229;-84
2022/01/25 13:03:23;;;;;;;22.47;15.37;;;3.70;99.90;;;;;;4997448;28;20637;-86
2022/01/25 13:05:56;;;;;;;18.23;14.53;;;3.70;99.90;;;;;;4998150;28;20171;-85
2022/01/25 13:08:27;;;;;;;19.73;14.70;;;3.70;99.90;;;;;;4997489;28;20244;-85
2022/01/25 13:11:13;;;;;;;21.80;14.90;;;3.70;99.90;;;;;;4996955;28;20157;-85
2022/01/25 13:16:44;;;;;;;19.13;13.90;;;3.80;99.90;;;;;;4956168;29;20185;-85
2022/01/25 13:19:11;;;;;;;18.57;13.70;;;3.80;99.90;;;;;;4956525;29;20181;-85
2022/01/25 13:21:46;;;;;;;18.40;13.43;;;3.90;99.90;;;;;;4957828;29;20218;-85
2022/01/25 13:24:15;;;;;;;17.73;12.50;;;3.90;99.90;;;;;;4956764;29;20658;-85
2022/01/25 13:26:53;;;;;;;17.53;12.67;;;3.90;99.90;;;;;;4956528;29;20179;-85
2022/01/25 13:32:12;;;;;;;15.37;11.93;;;4.00;99.90;;;;;;4977767;28;20559;-84
2022/01/25 13:34:38;;;;;;;16.00;12.07;;;4.00;99.90;;;;;;4984575;28;20208;-85
2022/01/25 13:37:04;;;;;;;14.43;12.33;;;4.10;99.90;;;;;;4977427;28;20721;-86
2022/01/25 13:39:30;;;;;;;14.53;11.60;;;4.10;99.90;;;;;;4976564;28;20178;-86
2022/01/25 13:42:09;;;;;;;15.97;11.80;;;4.10;99.90;;;;;;4975521;28;20210;-86
2022/01/25 13:47:19;;;;;;;13.33;9.83;;;4.10;99.90;;;;;;4975598;28;20242;-86
2022/01/25 13:49:47;;;;;;;12.07;9.83;;;4.20;99.90;;;;;;4974978;28;20183;-86
2022/01/25 13:52:13;;;;;;;12.77;9.60;;;4.20;99.90;;;;;;4976999;28;20206;-86
2022/01/25 13:54:39;;;;;;;9.87;8.60;;;4.20;99.90;;;;;;5016194;28;20679;-86
2022/01/25 13:57:10;;;;;;;8.67;7.77;;;4.20;99.90;;;;;;5015619;28;20673;-86
2022/01/25 13:59:36;;;;;;;8.37;7.57;;;4.10;99.90;;;;;;4998711;28;20192;-86
2022/01/25 14:02:03;;;;;;;8.17;7.37;;;4.10;99.90;;;;;;5017481;28;20184;-86
2022/01/25 14:04:30;;;;;;;8.20;7.40;;;4.10;99.90;;;;;;5024933;28;20175;-86
2022/01/25 14:06:58;;;;;;;8.73;7.83;;;4.10;99.90;;;;;;5022338;28;20179;-85
2022/01/25 14:09:31;;;;;;;9.53;8.07;;;4.10;99.90;;;;;;4998426;28;20683;-86
2022/01/25 14:23:28;;;;;;;9.40;8.40;;;4.10;99.90;;;;;;5015237;28;20272;-85
2022/01/25 14:26:07;;;;;;;12.27;9.37;;;4.10;99.90;;;;;;5014878;28;20185;-85
2022/01/25 14:28:40;;;;;;;11.27;9.27;;;4.10;99.90;;;;;;5015638;28;20221;-86
2022/01/25 14:31:17;;;;;;;14.10;8.83;;;4.20;99.90;;;;;;5015187;28;20166;-86
2022/01/25 14:33:55;;;;;;;10.50;9.10;;;4.10;99.90;;;;;;5015920;28;20184;-86
2022/01/25 14:36:26;;;;;;;12.67;9.33;;;4.10;99.90;;;;;;5016738;28;20276;-86
2022/01/25 14:38:54;;;;;;;10.80;8.60;;;4.00;99.90;;;;;;5015149;28;20524;-85
2022/01/25 14:41:31;;;;;;;10.67;9.27;;;4.10;99.90;;;;;;5015066;28;20176;-85
2022/01/25 14:44:04;;;;;;;11.50;9.10;;;4.10;99.90;;;;;;5015595;28;20157;-84
2022/01/25 14:46:38;;;;;;;12.27;9.60;;;4.20;99.90;;;;;;5015164;28;20216;-84
2022/01/25 14:49:07;;;;;;;11.93;9.00;;;4.10;99.90;;;;;;5015279;28;20162;-84
2022/01/25 14:51:37;;;;;;;12.23;10.23;;;4.10;99.90;;;;;;5015750;28;20640;-84
2022/01/25 14:54:11;;;;;;;11.43;9.70;;;4.10;99.90;;;;;;5017538;28;20200;-84
2022/01/25 14:56:47;;;;;;;12.03;9.97;;;4.00;99.90;;;;;;5016289;28;20175;-85
2022/01/25 14:59:27;;;;;;;13.70;10.60;;;4.00;99.90;;;;;;5015139;28;20211;-86
2022/01/25 15:02:00;;;;;;;17.17;10.73;;;4.10;99.90;;;;;;5016422;28;20157;-86
2022/01/25 15:04:27;;;;;;;14.47;10.77;;;4.00;99.90;;;;;;5016178;28;20556;-86